Time;durP1;ratioP1;P1;durP2;ratioP2;P2;SDS_P1;SDS_P2;PMS_P1;PMS_P2;Temp;Humidity;BMP_temperature;BMP_pressure;BME280_temperature;BME280_humidity;BME280_pressure;Samples;Min_cycle;Max_cycle;Signal;HPM_P1;HPM_P2
2021/05/23 00:00:53;;;;;;;62.67;59.77;;;8.70;99.90;;;;;;5015744;28;20460;-81
2021/05/23 00:03:20;;;;;;;65.87;62.77;;;8.70;99.90;;;;;;5015347;28;20481;-82
2021/05/23 00:05:47;;;;;;;64.03;61.00;;;8.60;99.90;;;;;;5014885;28;20457;-82
2021/05/23 00:08:15;;;;;;;69.27;66.07;;;8.70;99.90;;;;;;5015352;28;20516;-81
2021/05/23 00:10:46;;;;;;;71.00;67.70;;;8.40;99.90;;;;;;5015968;28;20453;-83
2021/05/23 00:13:15;;;;;;;76.83;73.23;;;8.40;99.90;;;;;;5015377;28;20967;-82
2021/05/23 00:15:46;;;;;;;81.60;77.90;;;8.30;99.90;;;;;;5015421;28;20956;-83
2021/05/23 00:18:15;;;;;;;84.57;80.67;;;8.40;99.90;;;;;;5015256;28;20457;-81
2021/05/23 00:20:41;;;;;;;88.80;84.77;;;8.30;99.90;;;;;;5014446;28;20788;-82
2021/05/23 00:23:09;;;;;;;90.30;86.10;;;8.40;99.90;;;;;;5015162;28;20511;-82
2021/05/23 00:25:37;;;;;;;93.13;88.93;;;8.30;99.90;;;;;;5015557;28;20459;-82
2021/05/23 00:28:04;;;;;;;95.33;91.03;;;8.40;99.90;;;;;;5015302;28;20453;-81
2021/05/23 00:30:32;;;;;;;96.80;92.50;;;8.50;99.90;;;;;;5015212;28;20975;-82
2021/05/23 00:32:58;;;;;;;95.07;90.87;;;8.60;99.90;;;;;;5015244;28;20959;-82
2021/05/23 00:35:28;;;;;;;92.57;88.23;;;8.60;99.90;;;;;;5014184;28;20464;-81
2021/05/23 00:37:56;;;;;;;88.70;84.40;;;8.50;99.90;;;;;;5015014;28;20457;-82
2021/05/23 00:40:23;;;;;;;91.00;86.93;;;8.50;99.90;;;;;;5015156;28;20453;-82
2021/05/23 00:42:50;;;;;;;104.37;99.70;;;8.40;99.90;;;;;;5014609;28;20456;-81
2021/05/23 00:45:18;;;;;;;102.70;98.10;;;8.50;99.90;;;;;;5015020;28;20461;-81
2021/05/23 00:47:47;;;;;;;110.57;105.57;;;8.60;99.90;;;;;;5014781;28;20454;-82
2021/05/23 00:50:18;;;;;;;107.57;102.60;;;8.70;99.90;;;;;;5014019;28;20488;-80
2021/05/23 00:52:44;;;;;;;110.00;105.13;;;8.80;99.90;;;;;;5014629;28;20453;-82
2021/05/23 00:55:13;;;;;;;105.23;100.60;;;8.90;99.90;;;;;;5014795;28;21064;-82
2021/05/23 00:57:41;;;;;;;92.67;88.47;;;8.90;99.90;;;;;;5014562;28;20568;-82
2021/05/23 01:00:09;;;;;;;85.03;81.23;;;8.90;99.90;;;;;;5014695;28;20449;-81
2021/05/23 01:02:43;;;;;;;72.97;69.23;;;8.90;99.90;;;;;;5014570;28;20481;-82
2021/05/23 01:05:12;;;;;;;76.37;72.97;;;8.90;99.90;;;;;;5014149;28;20968;-82
2021/05/23 01:07:42;;;;;;;64.23;60.93;;;9.00;99.90;;;;;;5014116;28;20559;-81
2021/05/23 01:10:12;;;;;;;65.23;61.90;;;9.00;99.90;;;;;;5014618;28;20821;-82
2021/05/23 01:13:32;;;;;;;70.50;67.10;;;9.00;99.90;;;;;;5014328;28;20484;-82
2021/05/23 01:15:59;;;;;;;62.80;59.60;;;9.00;99.90;;;;;;5011478;28;20461;-81
2021/05/23 01:18:37;;;;;;;61.40;58.30;;;9.00;99.90;;;;;;5014246;28;20854;-82
2021/05/23 01:21:08;;;;;;;55.17;52.20;;;9.10;99.90;;;;;;5013317;28;20877;-82
2021/05/23 01:23:41;;;;;;;47.93;45.43;;;9.10;99.90;;;;;;5014127;28;20508;-81
2021/05/23 01:26:11;;;;;;;46.60;44.10;;;9.10;99.90;;;;;;5014270;28;20559;-81
2021/05/23 01:28:41;;;;;;;49.90;47.23;;;9.20;99.90;;;;;;5013855;28;20515;-81
2021/05/23 01:31:10;;;;;;;45.77;43.17;;;9.30;99.90;;;;;;5014189;28;20481;-81
2021/05/23 01:33:37;;;;;;;46.67;44.17;;;9.20;99.90;;;;;;5013689;28;20457;-81
2021/05/23 01:36:05;;;;;;;41.00;38.50;;;9.30;99.90;;;;;;5013082;28;20544;-81
2021/05/23 01:38:32;;;;;;;42.47;39.87;;;9.10;99.90;;;;;;5013773;28;20541;-82
2021/05/23 01:41:01;;;;;;;45.67;43.27;;;9.10;99.90;;;;;;5013916;28;20544;-82
2021/05/23 01:43:29;;;;;;;47.70;44.80;;;9.10;99.90;;;;;;5013546;28;21026;-80
2021/05/23 01:45:57;;;;;;;51.80;49.10;;;9.10;99.90;;;;;;5013939;28;20552;-82
2021/05/23 01:48:23;;;;;;;51.10;48.47;;;9.10;99.90;;;;;;5013260;28;20488;-81
2021/05/23 01:50:50;;;;;;;46.30;43.53;;;9.20;99.90;;;;;;5013019;28;20489;-82
2021/05/23 01:53:16;;;;;;;46.73;44.20;;;9.20;99.90;;;;;;5013501;28;20457;-82
2021/05/23 01:55:45;;;;;;;46.23;43.73;;;9.30;99.90;;;;;;5013560;28;20473;-82
2021/05/23 01:58:12;;;;;;;40.57;38.30;;;9.40;99.90;;;;;;5013466;28;20532;-82
2021/05/23 02:00:41;;;;;;;41.67;39.30;;;9.40;99.90;;;;;;5013819;28;20461;-82
2021/05/23 02:03:12;;;;;;;44.97;42.47;;;9.50;99.90;;;;;;5013216;28;20476;-80
2021/05/23 02:05:41;;;;;;;40.67;38.37;;;9.50;99.90;;;;;;5012525;28;20465;-82
2021/05/23 02:08:09;;;;;;;43.97;41.57;;;9.50;99.90;;;;;;5013182;28;20484;-82
2021/05/23 02:10:36;;;;;;;46.23;43.50;;;9.50;99.90;;;;;;5013371;28;20450;-82
2021/05/23 02:13:04;;;;;;;48.13;45.57;;;9.50;99.90;;;;;;5013507;28;20453;-82
2021/05/23 02:15:34;;;;;;;53.77;50.87;;;9.40;99.90;;;;;;5013403;28;20543;-84
2021/05/23 02:18:01;;;;;;;59.00;56.00;;;9.50;99.90;;;;;;5012734;28;20539;-83
2021/05/23 02:20:29;;;;;;;62.60;59.33;;;9.40;99.90;;;;;;5012536;28;20456;-84
2021/05/23 02:22:58;;;;;;;67.23;63.90;;;9.50;99.90;;;;;;5013011;28;20572;-85
2021/05/23 02:25:25;;;;;;;68.83;65.43;;;9.50;99.90;;;;;;5013323;28;20461;-83
2021/05/23 02:27:53;;;;;;;72.87;69.30;;;9.50;99.90;;;;;;5013263;28;20445;-87
2021/05/23 02:30:23;;;;;;;76.47;72.67;;;9.30;99.90;;;;;;5013483;28;20460;-85
2021/05/23 02:32:56;;;;;;;78.27;74.47;;;9.40;99.90;;;;;;5012879;28;20548;-86
2021/05/23 02:35:40;;;;;;;87.30;83.00;;;9.30;99.90;;;;;;5012346;28;20457;-85
2021/05/23 02:38:12;;;;;;;90.27;85.90;;;9.30;99.90;;;;;;5012615;28;20453;-86
2021/05/23 02:41:12;;;;;;;102.93;98.07;;;9.30;99.90;;;;;;5012675;28;20453;-85
2021/05/23 02:43:39;;;;;;;99.33;94.50;;;9.30;99.90;;;;;;5005037;28;20474;-80
2021/05/23 02:46:05;;;;;;;103.87;98.63;;;9.20;99.90;;;;;;4994650;28;20485;-85
2021/05/23 02:48:31;;;;;;;96.20;91.40;;;9.30;99.90;;;;;;4993582;28;20993;-84
2021/05/23 02:51:02;;;;;;;105.73;100.60;;;9.20;99.90;;;;;;5006174;28;20539;-78
2021/05/23 02:53:28;;;;;;;105.63;100.37;;;9.30;99.90;;;;;;5013024;28;20826;-78
2021/05/23 02:56:19;;;;;;;104.13;99.07;;;9.20;99.90;;;;;;5012265;28;20501;-84
2021/05/23 03:02:00;;;;;;;122.77;116.17;;;9.30;99.90;;;;;;4951168;28;20541;-83
2021/05/23 03:04:56;;;;;;;119.23;113.40;;;9.30;99.90;;;;;;4999848;28;20996;-84
2021/05/23 03:07:28;;;;;;;119.20;113.33;;;9.20;99.90;;;;;;5006517;28;20488;-83
2021/05/23 03:09:57;;;;;;;127.77;121.47;;;9.30;99.90;;;;;;5012163;28;20945;-83
2021/05/23 03:15:19;;;;;;;141.80;135.00;;;9.30;99.90;;;;;;5011207;28;20936;-82
2021/05/23 03:17:56;;;;;;;130.93;124.37;;;9.20;99.90;;;;;;5012902;28;20458;-83
2021/05/23 03:21:03;;;;;;;143.00;135.60;;;9.30;99.90;;;;;;5011355;28;20457;-82
2021/05/23 03:23:47;;;;;;;147.13;139.20;;;9.20;99.90;;;;;;5012450;28;20485;-82
2021/05/23 03:26:15;;;;;;;145.87;138.57;;;9.30;99.90;;;;;;4985934;28;20464;-83
2021/05/23 03:28:46;;;;;;;146.20;139.00;;;9.30;99.90;;;;;;5012334;28;20802;-83
2021/05/23 03:31:12;;;;;;;150.53;143.30;;;9.20;99.90;;;;;;5015612;28;20957;-83
2021/05/23 03:33:40;;;;;;;159.63;151.93;;;9.30;99.90;;;;;;5016049;28;20483;-82
2021/05/23 03:36:30;;;;;;;162.63;154.83;;;9.30;99.90;;;;;;4964166;28;20874;-83
2021/05/23 03:39:16;;;;;;;167.10;158.90;;;9.30;99.90;;;;;;5015970;28;20948;-83
2021/05/23 03:41:52;;;;;;;156.43;148.77;;;9.30;99.90;;;;;;5016062;28;20523;-82
2021/05/23 03:46:59;;;;;;;173.97;165.37;;;9.30;99.90;;;;;;4996478;28;20441;-83
2021/05/23 03:49:30;;;;;;;167.23;159.17;;;9.40;99.90;;;;;;5014928;28;20484;-83
2021/05/23 03:52:02;;;;;;;174.50;166.20;;;9.30;99.90;;;;;;5002086;28;20544;-83
2021/05/23 03:54:40;;;;;;;163.43;155.43;;;9.40;99.90;;;;;;5014704;28;20464;-82
2021/05/23 03:57:07;;;;;;;169.47;160.97;;;9.40;99.90;;;;;;5015269;28;20463;-86
2021/05/23 03:59:38;;;;;;;180.87;172.27;;;9.40;99.90;;;;;;5011732;28;20464;-83
2021/05/23 04:02:09;;;;;;;181.90;172.70;;;9.40;99.90;;;;;;4997456;28;20531;-83
2021/05/23 04:04:46;;;;;;;179.13;170.23;;;9.40;99.90;;;;;;5015248;28;20476;-82
2021/05/23 04:07:17;;;;;;;176.70;167.60;;;9.60;99.90;;;;;;5014088;28;20472;-83
2021/05/23 04:09:45;;;;;;;179.37;170.57;;;9.50;99.90;;;;;;5014594;28;20477;-83
2021/05/23 04:12:28;;;;;;;;;;;;;;;;;;;;;
2021/05/23 04:14:54;;;;;;;190.90;181.90;;;9.60;99.90;;;;;;4993754;28;20815;-83
2021/05/23 04:17:32;;;;;;;194.77;185.47;;;9.60;99.90;;;;;;5014295;28;20484;-84
2021/05/23 04:20:04;;;;;;;198.90;189.20;;;9.60;99.90;;;;;;5013071;28;20445;-83
2021/05/23 04:22:43;;;;;;;192.47;182.90;;;9.60;99.90;;;;;;5013457;28;20960;-83
2021/05/23 04:25:13;;;;;;;199.50;189.90;;;9.70;99.90;;;;;;5012916;28;20507;-84
2021/05/23 04:27:40;;;;;;;187.43;178.37;;;9.60;99.90;;;;;;5014604;28;21032;-83
2021/05/23 04:30:36;;;;;;;189.77;180.27;;;9.70;99.90;;;;;;5014271;28;20995;-84
2021/05/23 04:36:42;;;;;;;173.33;164.57;;;9.80;99.90;;;;;;5011874;28;20447;-84
2021/05/23 04:43:18;;;;;;;166.43;158.33;;;9.70;99.90;;;;;;4913676;29;20533;-83
2021/05/23 04:45:56;;;;;;;166.43;158.40;;;9.60;99.90;;;;;;5014513;28;20445;-85
2021/05/23 04:48:24;;;;;;;162.93;154.63;;;9.70;99.90;;;;;;5014470;28;20449;-83
2021/05/23 04:51:25;;;;;;;;;;;;;;;;;;;;;
2021/05/23 04:53:54;;;;;;;134.40;128.10;;;9.70;99.90;;;;;;5013842;28;20457;-84
2021/05/23 05:03:46;;;;;;;;;;;;;;;;;;;;;
2021/05/23 05:06:52;;;;;;;54.93;52.03;;;9.50;99.90;;;;;;4831007;29;20466;-83
2021/05/23 05:09:29;;;;;;;47.67;44.80;;;9.50;99.90;;;;;;4920601;29;20535;-83
2021/05/23 05:11:55;;;;;;;40.10;37.60;;;9.40;99.90;;;;;;4934880;29;20527;-84
2021/05/23 05:14:31;;;;;;;39.87;37.60;;;9.40;99.90;;;;;;4918901;29;20491;-84
2021/05/23 05:16:58;;;;;;;39.47;37.00;;;9.30;99.90;;;;;;4937287;28;20463;-83
2021/05/23 05:19:30;;;;;;;29.03;27.13;;;9.30;99.90;;;;;;4991808;28;20957;-83
2021/05/23 05:22:08;;;;;;;29.97;28.03;;;9.30;99.90;;;;;;4989746;28;21165;-83
2021/05/23 05:24:41;;;;;;;31.17;29.17;;;9.30;99.90;;;;;;4994478;28;20961;-83
2021/05/23 05:27:20;;;;;;;;;;;;;;;;;;;;;
2021/05/23 05:29:52;;;;;;;40.33;38.00;;;9.30;99.90;;;;;;4994349;28;20492;-82
2021/05/23 05:32:21;;;;;;;44.40;41.47;;;9.30;99.90;;;;;;4983418;28;20863;-83
2021/05/23 05:34:52;;;;;;;49.90;47.20;;;9.30;99.90;;;;;;4976075;28;20942;-82
2021/05/23 05:37:18;;;;;;;60.47;56.50;;;9.20;99.90;;;;;;4993014;28;20489;-83
2021/05/23 05:39:50;;;;;;;63.27;60.13;;;9.20;99.90;;;;;;4994291;28;20449;-83
2021/05/23 05:42:32;;;;;;;;;;;;;;;;;;;;;
2021/05/23 05:44:58;;;;;;;71.67;67.47;;;9.30;99.90;;;;;;4993628;28;20481;-82
2021/05/23 05:47:26;;;;;;;74.83;71.13;;;9.30;99.90;;;;;;4994126;28;20466;-83
2021/05/23 05:49:52;;;;;;;73.90;70.10;;;9.50;99.90;;;;;;4994099;28;20466;-83
2021/05/23 05:52:26;;;;;;;77.67;73.77;;;9.50;99.90;;;;;;4992006;28;20486;-83
2021/05/23 05:55:05;;;;;;;78.40;74.13;;;9.50;99.90;;;;;;4993893;28;20912;-83
2021/05/23 05:57:31;;;;;;;64.20;61.00;;;9.60;99.90;;;;;;4983612;28;20905;-82
2021/05/23 05:59:58;;;;;;;57.20;54.10;;;9.60;99.90;;;;;;4991320;28;20537;-84
2021/05/23 06:02:24;;;;;;;60.53;57.30;;;9.70;99.90;;;;;;4993932;28;20454;-84
2021/05/23 06:04:54;;;;;;;54.37;51.17;;;9.80;99.90;;;;;;4993820;28;21047;-83
2021/05/23 06:07:24;;;;;;;55.07;52.07;;;9.80;99.90;;;;;;4996429;28;20483;-83
2021/05/23 06:09:55;;;;;;;54.53;51.43;;;10.00;99.90;;;;;;4997504;28;20806;-85
2021/05/23 06:12:22;;;;;;;41.43;38.60;;;10.00;99.90;;;;;;4993642;28;20454;-82
2021/05/23 06:14:51;;;;;;;31.43;28.23;;;10.20;99.90;;;;;;5002612;28;20453;-83
2021/05/23 06:17:18;;;;;;;19.20;17.30;;;10.20;99.90;;;;;;5013401;28;20472;-82
2021/05/23 06:19:44;;;;;;;15.90;13.33;;;10.20;99.90;;;;;;5013089;28;20556;-84
2021/05/23 06:22:13;;;;;;;17.57;10.60;;;10.20;99.90;;;;;;5012309;28;20519;-82
2021/05/23 06:24:39;;;;;;;16.07;10.00;;;10.30;99.90;;;;;;5013030;28;20481;-84
2021/05/23 06:27:06;;;;;;;17.87;8.47;;;10.20;99.90;;;;;;5013170;28;20457;-82
2021/05/23 06:29:33;;;;;;;15.20;8.97;;;10.10;99.90;;;;;;5012996;28;20963;-83
2021/05/23 06:31:59;;;;;;;17.67;8.90;;;10.10;99.90;;;;;;5013271;28;21161;-84
2021/05/23 06:34:26;;;;;;;15.73;10.33;;;10.10;99.90;;;;;;5013087;28;20556;-81
2021/05/23 06:36:52;;;;;;;15.30;10.77;;;10.20;99.90;;;;;;5012191;28;20457;-82
2021/05/23 06:39:19;;;;;;;15.17;7.63;;;10.40;99.90;;;;;;5013108;28;20460;-82
2021/05/23 06:41:45;;;;;;;17.10;7.40;;;10.50;99.90;;;;;;5012951;28;20919;-83
2021/05/23 06:44:12;;;;;;;18.00;4.20;;;10.60;99.90;;;;;;5012659;28;20483;-82
2021/05/23 06:46:40;;;;;;;13.43;3.00;;;10.70;99.90;;;;;;5013045;28;20453;-83
2021/05/23 06:49:06;;;;;;;14.53;3.83;;;10.70;99.90;;;;;;5012948;28;20449;-80
2021/05/23 06:51:33;;;;;;;21.20;4.90;;;10.70;99.90;;;;;;5011758;28;20511;-82
2021/05/23 06:53:59;;;;;;;18.10;3.27;;;11.10;99.90;;;;;;5012118;28;20480;-82
2021/05/23 06:56:26;;;;;;;23.80;3.23;;;11.70;98.20;;;;;;5012567;28;20750;-81
2021/05/23 06:58:52;;;;;;;18.17;3.40;;;12.00;87.70;;;;;;5012678;28;20457;-82
2021/05/23 07:05:18;;;;;;;22.67;2.53;;;12.60;72.30;;;;;;5012197;28;20488;-82
2021/05/23 07:08:08;;;;;;;22.97;2.33;;;12.70;62.00;;;;;;5016741;28;20476;-82
2021/05/23 07:10:35;;;;;;;24.67;1.97;;;13.00;55.70;;;;;;5012793;28;20448;-83
2021/05/23 07:13:03;;;;;;;22.90;2.47;;;13.00;50.80;;;;;;5016636;28;20483;-84
2021/05/23 07:15:38;;;;;;;23.40;1.80;;;13.00;49.90;;;;;;5016596;28;20859;-86
2021/05/23 07:18:05;;;;;;;27.13;3.10;;;13.10;41.30;;;;;;5016603;28;20986;-80
2021/05/23 07:20:37;;;;;;;22.00;2.43;;;12.90;41.60;;;;;;5015065;28;20455;-83
2021/05/23 07:23:07;;;;;;;21.33;1.97;;;12.70;37.50;;;;;;5016292;28;20956;-83
2021/05/23 07:25:37;;;;;;;22.23;2.13;;;12.90;38.10;;;;;;5016064;28;20493;-85
2021/05/23 07:28:05;;;;;;;22.73;1.60;;;13.20;38.90;;;;;;5013744;28;20476;-85
2021/05/23 07:30:33;;;;;;;25.00;1.70;;;13.20;31.10;;;;;;5014770;28;20461;-85
2021/05/23 07:33:05;;;;;;;26.60;2.33;;;13.20;29.30;;;;;;5015383;28;20463;-85
2021/05/23 07:35:42;;;;;;;24.80;2.63;;;13.50;31.30;;;;;;5014101;28;20461;-83
2021/05/23 07:38:13;;;;;;;23.10;2.57;;;13.40;29.40;;;;;;5014132;28;20457;-85
2021/05/23 07:40:44;;;;;;;24.80;1.80;;;13.60;29.60;;;;;;5014996;28;20445;-84
2021/05/23 07:43:28;;;;;;;25.67;3.33;;;13.60;25.60;;;;;;5015042;28;20464;-86
2021/05/23 07:45:54;;;;;;;24.13;2.00;;;13.40;23.40;;;;;;5015118;28;20464;-85
2021/05/23 07:48:23;;;;;;;24.40;1.93;;;13.80;24.20;;;;;;5014532;28;20453;-85
2021/05/23 07:51:16;;;;;;;23.30;1.60;;;14.20;26.90;;;;;;5014059;28;20838;-86
2021/05/23 07:53:46;;;;;;;23.73;1.97;;;13.90;22.60;;;;;;5009408;28;20464;-84
2021/05/23 07:56:18;;;;;;;24.97;1.80;;;14.30;23.70;;;;;;5015707;28;20460;-85
2021/05/23 07:58:44;;;;;;;24.30;1.70;;;13.90;21.30;;;;;;5015986;28;20480;-85
2021/05/23 08:01:13;;;;;;;23.03;1.33;;;14.00;22.70;;;;;;5015969;28;20508;-85
2021/05/23 08:03:41;;;;;;;28.23;1.90;;;14.40;20.00;;;;;;5015875;28;20456;-85
2021/05/23 08:06:10;;;;;;;25.47;1.80;;;15.00;21.80;;;;;;5014475;28;20468;-85
2021/05/23 08:08:50;;;;;;;25.40;1.60;;;14.40;19.30;;;;;;5015507;28;20512;-84
2021/05/23 08:11:17;;;;;;;23.30;1.60;;;14.60;18.70;;;;;;5015663;28;20967;-85
2021/05/23 08:13:45;;;;;;;23.03;1.50;;;15.20;16.30;;;;;;5015589;28;20456;-84
2021/05/23 08:16:12;;;;;;;26.87;1.57;;;15.30;16.40;;;;;;5014734;28;20452;-86
2021/05/23 08:18:45;;;;;;;29.70;2.20;;;16.00;14.10;;;;;;5015629;28;20457;-86
2021/05/23 08:21:54;;;;;;;;;;;;;;;;;;;;;
2021/05/23 08:25:07;;;;;;;;;;;;;;;;;;;;;
2021/05/23 08:28:07;;;;;;;25.50;1.37;;;16.30;9.90;;;;;;4831581;29;20913;-84
2021/05/23 08:44:09;;;;;;;;;;;;;;;;;;;;;
2021/05/23 08:46:37;;;;;;;25.40;2.10;;;14.80;13.70;;;;;;4862248;29;20483;-86
2021/05/23 08:49:04;;;;;;;26.87;2.00;;;14.60;13.70;;;;;;4954142;29;20447;-86
2021/05/23 08:51:33;;;;;;;22.80;1.77;;;14.10;12.20;;;;;;4968632;28;21068;-84
2021/05/23 08:54:05;;;;;;;23.30;1.87;;;13.60;14.70;;;;;;5014656;28;20450;-85
2021/05/23 08:56:32;;;;;;;19.80;1.80;;;13.20;14.80;;;;;;5014697;28;20502;-84
2021/05/23 08:58:59;;;;;;;25.90;1.77;;;13.80;16.60;;;;;;5011792;28;20453;-83
2021/05/23 09:01:27;;;;;;;18.90;1.63;;;14.40;15.30;;;;;;5013617;28;20533;-85
2021/05/23 09:07:34;;;;;;;23.93;2.90;;;14.10;15.50;;;;;;4964375;28;20474;-84
2021/05/23 09:10:16;;;;;;;;;;;;;;;;;;;;;
2021/05/23 09:12:59;;;;;;;20.13;1.43;;;14.30;15.60;;;;;;5013225;28;20510;-85
2021/05/23 09:15:33;;;;;;;19.53;1.60;;;15.70;10.90;;;;;;5012475;28;20453;-86
2021/05/23 09:18:05;;;;;;;22.03;1.47;;;16.40;7.50;;;;;;5012835;28;20453;-85
2021/05/23 09:20:36;;;;;;;24.70;1.50;;;16.90;4.30;;;;;;5012012;28;21026;-84
2021/05/23 09:23:14;;;;;;;28.80;2.90;;;17.20;5.80;;;;;;5013084;28;20551;-84
2021/05/23 09:25:57;;;;;;;25.87;1.70;;;17.50;3.90;;;;;;5013094;28;20481;-84
2021/05/23 09:28:30;;;;;;;26.83;1.83;;;17.30;4.50;;;;;;5012718;28;20464;-85
2021/05/23 09:31:09;;;;;;;29.20;2.00;;;16.60;1.00;;;;;;5013161;28;20492;-84
2021/05/23 09:33:47;;;;;;;27.47;1.97;;;16.40;1.80;;;;;;5012564;28;20817;-83
2021/05/23 09:36:15;;;;;;;25.80;2.27;;;16.40;2.60;;;;;;5012008;28;20547;-84
2021/05/23 09:39:03;;;;;;;26.40;1.87;;;16.80;2.30;;;;;;5013635;28;20481;-84
2021/05/23 09:45:10;;;;;;;28.03;1.40;;;16.90;1.50;;;;;;5012510;28;20477;-85
2021/05/23 09:48:05;;;;;;;27.43;1.53;;;16.40;2.10;;;;;;4964181;28;20504;-84
2021/05/23 09:53:35;;;;;;;27.60;2.80;;;16.20;4.60;;;;;;5003668;28;20445;-84
2021/05/23 09:56:07;;;;;;;24.80;1.50;;;16.70;3.20;;;;;;5013677;28;20459;-83
2021/05/23 09:58:41;;;;;;;26.27;1.57;;;16.80;1.00;;;;;;5013702;28;20457;-84
2021/05/23 10:01:23;;;;;;;26.50;1.70;;;16.50;2.70;;;;;;5013603;28;20823;-84
2021/05/23 10:03:56;;;;;;;25.90;1.90;;;15.80;1.00;;;;;;5013371;28;20488;-83
2021/05/23 10:06:27;;;;;;;26.93;1.53;;;15.40;4.00;;;;;;5012576;28;20500;-84
2021/05/23 10:08:54;;;;;;;25.13;1.60;;;15.30;3.80;;;;;;5013231;28;20520;-83
2021/05/23 10:11:20;;;;;;;22.13;1.47;;;15.50;3.20;;;;;;5013132;28;20514;-83
2021/05/23 10:13:48;;;;;;;22.30;1.40;;;15.90;3.30;;;;;;5009615;28;20558;-83
2021/05/23 10:16:25;;;;;;;22.57;1.10;;;17.00;3.70;;;;;;5013452;28;20457;-84
2021/05/23 10:18:54;;;;;;;26.47;1.40;;;17.30;2.30;;;;;;5013301;28;20515;-81
2021/05/23 10:21:21;;;;;;;25.67;1.40;;;17.00;1.00;;;;;;5009500;28;20858;-83
2021/05/23 10:23:51;;;;;;;26.80;1.60;;;16.70;1.00;;;;;;5013196;28;20461;-85
2021/05/23 10:26:26;;;;;;;26.07;1.40;;;16.50;2.40;;;;;;5013136;28;20453;-83
2021/05/23 10:29:02;;;;;;;24.77;1.47;;;16.60;3.30;;;;;;5012507;28;21052;-83
2021/05/23 10:31:39;;;;;;;24.57;1.33;;;16.20;1.80;;;;;;5013342;28;20488;-84
2021/05/23 10:34:10;;;;;;;24.07;1.50;;;16.30;1.90;;;;;;4993753;28;20541;-83
2021/05/23 10:39:52;;;;;;;25.63;1.80;;;16.60;1.00;;;;;;4876309;29;20448;-82
2021/05/23 10:42:26;;;;;;;25.23;1.57;;;16.40;1.50;;;;;;4964736;28;20861;-83
2021/05/23 10:44:55;;;;;;;26.53;2.30;;;16.50;4.10;;;;;;5013232;28;20484;-81
2021/05/23 10:47:28;;;;;;;28.17;1.70;;;17.60;4.00;;;;;;5012377;28;20544;-84
2021/05/23 10:49:59;;;;;;;25.87;1.60;;;18.00;1.00;;;;;;5012268;28;20457;-83
2021/05/23 10:52:28;;;;;;;26.67;1.80;;;18.60;1.00;;;;;;5010570;28;20497;-83
2021/05/23 10:58:06;;;;;;;33.10;1.60;;;18.50;1.00;;;;;;5002245;28;20812;-83
2021/05/23 11:01:12;;;;;;;;;;;;;;;;;;;;;
2021/05/23 11:03:40;;;;;;;31.50;1.60;;;17.70;1.00;;;;;;4990681;28;20491;-83
2021/05/23 11:06:21;;;;;;;30.70;1.40;;;18.30;1.00;;;;;;5011508;28;20484;-82
2021/05/23 11:09:06;;;;;;;36.23;2.40;;;18.60;1.00;;;;;;5000860;28;20532;-81
2021/05/23 11:11:54;;;;;;;31.10;1.50;;;18.50;1.00;;;;;;4993152;28;20458;-83
2021/05/23 11:14:33;;;;;;;31.30;1.67;;;17.00;1.00;;;;;;4993111;28;20454;-82
2021/05/23 11:17:09;;;;;;;31.10;1.50;;;16.40;1.00;;;;;;4992896;28;21039;-82
2021/05/23 11:19:39;;;;;;;29.60;1.90;;;16.10;1.00;;;;;;4993724;28;20489;-83
2021/05/23 11:22:13;;;;;;;28.40;1.50;;;16.20;1.00;;;;;;5011717;28;20461;-81
2021/05/23 11:24:40;;;;;;;26.30;1.70;;;16.20;1.00;;;;;;5012177;28;20906;-82
2021/05/23 11:27:13;;;;;;;28.87;1.60;;;16.20;1.00;;;;;;5012715;28;20464;-82
2021/05/23 11:29:46;;;;;;;24.40;1.37;;;16.10;1.00;;;;;;5012189;28;20449;-83
2021/05/23 11:32:15;;;;;;;23.87;1.33;;;16.10;1.00;;;;;;5012626;28;20461;-85
2021/05/23 11:34:41;;;;;;;24.17;1.20;;;16.00;1.00;;;;;;5012690;28;20460;-84
2021/05/23 11:37:09;;;;;;;23.07;1.40;;;17.50;1.00;;;;;;5011568;28;20457;-84
2021/05/23 11:39:39;;;;;;;24.40;1.53;;;18.50;1.00;;;;;;5012135;28;21014;-83
2021/05/23 11:42:19;;;;;;;25.80;1.20;;;18.90;1.00;;;;;;5012227;28;20807;-82
2021/05/23 11:44:48;;;;;;;28.40;1.50;;;18.50;1.00;;;;;;5012618;28;20558;-83
2021/05/23 11:47:25;;;;;;;29.03;1.60;;;17.80;1.00;;;;;;5012260;28;20980;-83
2021/05/23 11:49:53;;;;;;;29.07;1.60;;;18.70;1.00;;;;;;5012572;28;20456;-86
2021/05/23 11:52:59;;;;;;;;;;;;;;;;;;;;;
2021/05/23 11:55:33;;;;;;;30.77;1.50;;;18.80;1.00;;;;;;5016119;28;20456;-84
2021/05/23 12:01:13;;;;;;;32.67;1.30;;;20.60;1.00;;;;;;5013034;28;20448;-84
2021/05/23 12:03:55;;;;;;;33.27;1.30;;;20.70;1.00;;;;;;5015287;28;20514;-84
2021/05/23 12:06:24;;;;;;;34.10;2.00;;;19.40;1.00;;;;;;5011478;28;20548;-81
2021/05/23 12:08:51;;;;;;;33.50;2.10;;;18.90;1.00;;;;;;5015233;28;20473;-85
2021/05/23 12:11:37;;;;;;;34.67;1.90;;;17.50;1.00;;;;;;5015570;28;20484;-83
2021/05/23 12:14:06;;;;;;;31.40;1.30;;;16.90;1.00;;;;;;5015111;28;20484;-84
2021/05/23 12:16:36;;;;;;;30.10;1.70;;;17.00;1.00;;;;;;5015430;28;21012;-84
2021/05/23 12:19:07;;;;;;;27.40;1.40;;;16.80;1.00;;;;;;5015459;28;20894;-83
2021/05/23 12:21:35;;;;;;;27.53;1.40;;;17.60;1.00;;;;;;5012835;28;20470;-82
2021/05/23 12:24:04;;;;;;;30.80;1.77;;;18.40;1.00;;;;;;5015262;28;20453;-83
2021/05/23 12:26:30;;;;;;;26.63;1.50;;;19.30;1.00;;;;;;5015586;28;20461;-84
2021/05/23 12:28:57;;;;;;;28.47;1.30;;;20.10;1.00;;;;;;5015290;28;20449;-84
2021/05/23 12:31:27;;;;;;;30.30;1.40;;;20.40;1.00;;;;;;5015461;28;20461;-84
2021/05/23 12:33:55;;;;;;;31.73;1.77;;;19.60;1.00;;;;;;5015357;28;20457;-85
2021/05/23 12:36:23;;;;;;;31.20;1.50;;;18.80;1.00;;;;;;5014133;28;20469;-84
2021/05/23 12:39:02;;;;;;;30.20;1.47;;;18.20;1.00;;;;;;5014919;28;20502;-85
2021/05/23 12:41:40;;;;;;;31.60;1.40;;;18.70;1.00;;;;;;5015078;28;20456;-85
2021/05/23 12:44:17;;;;;;;29.90;1.30;;;19.50;1.00;;;;;;5015157;28;20514;-84
2021/05/23 12:46:53;;;;;;;29.77;1.17;;;20.30;1.00;;;;;;5015007;28;20457;-85
2021/05/23 12:52:56;;;;;;;31.20;1.20;;;20.40;1.00;;;;;;4972052;28;20451;-85
2021/05/23 13:05:34;;;;;;;35.90;1.37;;;22.60;1.00;;;;;;4952460;28;20498;-85
2021/05/23 13:34:40;;;;;;;37.20;1.37;;;20.30;1.00;;;;;;4865809;29;21009;-86
2021/05/23 13:44:27;;;;;;;;;;;;;;;;;;;;;
2021/05/23 13:47:57;;;;;;;;;;;;;;;;;;;;;
2021/05/23 13:56:44;;;;;;;34.50;1.30;;;20.30;1.00;;;;;;4876377;29;20463;-85
2021/05/23 13:59:21;;;;;;;34.40;1.40;;;19.80;1.00;;;;;;4907170;28;20470;-84
2021/05/23 14:01:54;;;;;;;34.20;1.50;;;19.20;1.00;;;;;;4974248;28;20455;-84
2021/05/23 14:04:46;;;;;;;34.00;1.60;;;19.30;1.00;;;;;;4974328;28;20633;-84
2021/05/23 14:07:39;;;;;;;33.90;1.57;;;18.90;1.00;;;;;;4976328;28;20790;-82
2021/05/23 14:10:12;;;;;;;33.27;1.70;;;19.40;1.00;;;;;;4895752;29;20854;-84
2021/05/23 14:12:43;;;;;;;32.80;1.60;;;19.60;1.00;;;;;;5002518;28;20862;-84
2021/05/23 14:16:05;;;;;;;;;;;;;;;;;;;;;
2021/05/23 14:18:48;;;;;;;32.53;1.60;;;20.50;1.00;;;;;;4943498;28;20580;-85
2021/05/23 14:21:36;;;;;;;34.87;2.07;;;19.90;1.00;;;;;;5012082;28;20987;-84
2021/05/23 14:24:08;;;;;;;32.17;1.50;;;20.30;1.00;;;;;;5013508;28;20457;-85
2021/05/23 14:27:08;;;;;;;33.57;1.90;;;20.70;1.00;;;;;;5013297;28;20798;-84
2021/05/23 14:33:24;;;;;;;;;;;;;;;;;;;;;
2021/05/23 14:37:00;;;;;;;;;;;;;;;;;;;;;
2021/05/23 14:40:24;;;;;;;;;;;;;;;;;;;;;
2021/05/23 14:43:39;;;;;;;;;;;;;;;;;;;;;
2021/05/23 14:50:22;;;;;;;;;;;;;;;;;;;;;
2021/05/23 14:59:57;;;;;;;33.27;1.50;;;19.40;1.00;;;;;;4967144;28;20498;-84
2021/05/23 15:03:04;;;;;;;31.90;1.43;;;18.80;1.00;;;;;;4930028;29;20455;-84
2021/05/23 15:12:17;;;;;;;30.77;1.50;;;19.30;1.00;;;;;;4923444;28;20505;-85
2021/05/23 15:15:27;;;;;;;;;;;;;;;;;;;;;
2021/05/23 15:18:26;;;;;;;;;;;;;;;;;;;;;
2021/05/23 15:21:38;;;;;;;;;;;;;;;;;;;;;
2021/05/23 15:29:50;;;;;;;31.40;1.27;;;21.00;1.00;;;;;;4955989;28;20454;-83
2021/05/23 15:30:43;;;;;;;32.93;1.40;;;21.40;1.00;;;;;;5061034;28;20464;-84
2021/05/23 15:44:22;;;;;;;34.80;1.70;;;18.60;1.00;;;;;;4908198;29;20453;-83
2021/05/23 15:54:15;;;;;;;;;;;;;;;;;;;;;
2021/05/23 15:57:29;;;;;;;;;;;;;;;;;;;;;
2021/05/23 16:00:15;;;;;;;;;;;;;;;;;;;;;
2021/05/23 16:03:06;;;;;;;28.47;1.60;;;18.60;1.00;;;;;;5054312;28;20529;-83
2021/05/23 16:05:59;;;;;;;;;;;;;;;;;;;;;
2021/05/23 16:15:07;;;;;;;29.33;1.83;;;18.70;1.00;;;;;;5058805;28;20474;-83
2021/05/23 16:20:40;;;;;;;29.50;1.67;;;19.50;1.00;;;;;;5073761;28;20461;-86
2021/05/23 16:26:51;;;;;;;;;;;;;;;;;;;;;
2021/05/23 16:29:27;;;;;;;33.60;1.50;;;19.70;1.00;;;;;;5049820;28;20958;-86
2021/05/23 16:32:19;;;;;;;31.23;1.50;;;19.60;1.00;;;;;;5074958;28;20482;-86
2021/05/23 16:35:02;;;;;;;33.70;2.03;;;19.00;1.00;;;;;;5074324;28;20529;-83
2021/05/23 16:47:48;;;;;;;;;;;;;;;;;;;;;
2021/05/23 16:53:41;;;;;;;33.50;1.60;;;17.70;1.00;;;;;;5051983;28;20455;-83